AMX304 MMSD-MMTJ
Flight info
| Callsign | AMX304 |
|---|---|
| Flight time | 1h 51m |
| Altitude | 38000 |
| Route | ALRIN1A ALRIN UJ23 KAVRA UT6 IMUSU UT25 AVRIL UJ3 TANRI TANRI1B |
| Aircraft | B38M/M-SDE1FGHILORVWXY/HB1 |
Departure
| Time | 2026-04-30 01:07 |
|---|---|
| Airport | Los Cabos International Airport (MMSD) |
Arrival
| Time | 2026-04-30 02:59 |
|---|---|
| Airport | General Abelardo L. Rodriguez International Airport (MMTJ) |
| Time | Latitude | Longitude | Altitude | Speed | Heading |
|---|---|---|---|---|---|
| 2026-04-30 00:37 | 23.15781 | -109.71793 | 366 ft | 0 kts | 84° |
| 2026-04-30 00:55 | 23.15777 | -109.71816 | 366 ft | 4 kts | 69° |
| 2026-04-30 00:55 | 23.15747 | -109.71845 | 366 ft | 4 kts | 2° |
| 2026-04-30 00:56 | 23.15739 | -109.71845 | 366 ft | 0 kts | 354° |
| 2026-04-30 01:00 | 23.15740 | -109.71845 | 366 ft | 0 kts | 354° |
| 2026-04-30 01:01 | 23.15805 | -109.71852 | 366 ft | 13 kts | 354° |
| 2026-04-30 01:02 | 23.15856 | -109.71893 | 372 ft | 8 kts | 268° |
| 2026-04-30 01:02 | 23.15908 | -109.71952 | 368 ft | 17 kts | 347° |
| 2026-04-30 01:02 | 23.16046 | -109.71967 | 368 ft | 21 kts | 352° |
| 2026-04-30 01:02 | 23.16204 | -109.71981 | 374 ft | 27 kts | 355° |
| 2026-04-30 01:03 | 23.16395 | -109.72004 | 386 ft | 26 kts | 353° |
| 2026-04-30 01:03 | 23.16524 | -109.72017 | 392 ft | 7 kts | 353° |
| 2026-04-30 01:03 | 23.16598 | -109.72030 | 394 ft | 12 kts | 336° |
| 2026-04-30 01:03 | 23.16611 | -109.72096 | 394 ft | 13 kts | 264° |
| 2026-04-30 01:04 | 23.16588 | -109.72172 | 391 ft | 11 kts | 221° |
| 2026-04-30 01:04 | 23.16524 | -109.72223 | 392 ft | 14 kts | 194° |
| 2026-04-30 01:04 | 23.16500 | -109.72225 | 391 ft | 0 kts | 174° |
| 2026-04-30 01:06 | 23.16465 | -109.72221 | 390 ft | 32 kts | 174° |
| 2026-04-30 01:06 | 23.15921 | -109.72158 | 372 ft | 123 kts | 174° |
| 2026-04-30 01:07 | 23.14815 | -109.72033 | 407 ft | 189 kts | 173° |
| 2026-04-30 01:07 | 23.13412 | -109.71860 | 870 ft | 211 kts | 168° |
| 2026-04-30 01:07 | 23.11985 | -109.71543 | 1928 ft | 207 kts | 167° |
| 2026-04-30 01:07 | 23.10558 | -109.71168 | 2752 ft | 216 kts | 166° |
| 2026-04-30 01:08 | 23.09057 | -109.70751 | 3390 ft | 231 kts | 162° |
| 2026-04-30 01:08 | 23.07675 | -109.69773 | 3937 ft | 249 kts | 131° |
| 2026-04-30 01:08 | 23.06870 | -109.68062 | 4473 ft | 264 kts | 99° |
| 2026-04-30 01:08 | 23.06983 | -109.66054 | 5276 ft | 269 kts | 73° |
| 2026-04-30 01:09 | 23.07417 | -109.64050 | 6201 ft | 278 kts | 76° |
| 2026-04-30 01:09 | 23.07847 | -109.61953 | 6877 ft | 294 kts | 76° |
| 2026-04-30 01:09 | 23.08303 | -109.59765 | 7595 ft | 303 kts | 76° |
| 2026-04-30 01:09 | 23.08780 | -109.57496 | 7892 ft | 305 kts | 76° |
| 2026-04-30 01:10 | 23.09252 | -109.55258 | 7903 ft | 304 kts | 76° |
| 2026-04-30 01:10 | 23.09726 | -109.53022 | 7910 ft | 303 kts | 76° |
| 2026-04-30 01:10 | 23.10198 | -109.50788 | 7911 ft | 303 kts | 76° |
| 2026-04-30 01:10 | 23.10665 | -109.48582 | 7906 ft | 303 kts | 76° |
| 2026-04-30 01:11 | 23.11137 | -109.46349 | 7905 ft | 303 kts | 76° |
| 2026-04-30 01:11 | 23.11608 | -109.44122 | 7900 ft | 303 kts | 76° |
| 2026-04-30 01:11 | 23.12078 | -109.41892 | 7894 ft | 303 kts | 76° |
| 2026-04-30 01:11 | 23.12549 | -109.39657 | 7894 ft | 303 kts | 76° |
| 2026-04-30 01:12 | 23.13020 | -109.37426 | 7888 ft | 303 kts | 76° |
| 2026-04-30 01:12 | 23.13490 | -109.35185 | 8035 ft | 308 kts | 76° |
| 2026-04-30 01:12 | 23.13961 | -109.32936 | 9079 ft | 304 kts | 76° |
| 2026-04-30 01:12 | 23.14444 | -109.30675 | 9984 ft | 309 kts | 73° |
| 2026-04-30 01:13 | 23.15399 | -109.28545 | 10549 ft | 322 kts | 50° |
| 2026-04-30 01:13 | 23.17126 | -109.26947 | 10965 ft | 336 kts | 26° |
| 2026-04-30 01:13 | 23.19389 | -109.26180 | 11343 ft | 350 kts | 5° |
| 2026-04-30 01:13 | 23.21844 | -109.25848 | 11680 ft | 367 kts | 6° |
| 2026-04-30 01:14 | 23.24441 | -109.25465 | 11928 ft | 385 kts | 6° |
| 2026-04-30 01:14 | 23.27152 | -109.25061 | 12125 ft | 401 kts | 6° |
| 2026-04-30 01:14 | 23.29967 | -109.24617 | 12327 ft | 414 kts | 7° |
| 2026-04-30 01:14 | 23.32844 | -109.24159 | 12708 ft | 420 kts | 7° |
| 2026-04-30 01:15 | 23.35738 | -109.23719 | 13229 ft | 422 kts | 7° |
| 2026-04-30 01:15 | 23.38673 | -109.23282 | 13658 ft | 427 kts | 7° |
| 2026-04-30 01:15 | 23.41633 | -109.22848 | 14069 ft | 430 kts | 6° |
| 2026-04-30 01:15 | 23.44565 | -109.22419 | 14460 ft | 433 kts | 6° |
| 2026-04-30 01:16 | 23.47562 | -109.21980 | 14863 ft | 435 kts | 6° |
| 2026-04-30 01:16 | 23.50608 | -109.21535 | 15266 ft | 438 kts | 6° |
| 2026-04-30 01:16 | 23.53596 | -109.21096 | 15627 ft | 441 kts | 7° |
| 2026-04-30 01:16 | 23.56653 | -109.20626 | 16007 ft | 443 kts | 7° |
| 2026-04-30 01:17 | 23.59710 | -109.20157 | 16360 ft | 446 kts | 7° |
| 2026-04-30 01:17 | 23.62786 | -109.19686 | 16704 ft | 448 kts | 6° |
| 2026-04-30 01:17 | 23.65889 | -109.19211 | 17043 ft | 451 kts | 6° |
| 2026-04-30 01:17 | 23.69007 | -109.18733 | 17378 ft | 453 kts | 6° |
| 2026-04-30 01:18 | 23.72134 | -109.18253 | 17691 ft | 456 kts | 6° |
| 2026-04-30 01:18 | 23.75287 | -109.17770 | 18011 ft | 458 kts | 6° |
| 2026-04-30 01:18 | 23.78450 | -109.17285 | 18291 ft | 460 kts | 6° |
| 2026-04-30 01:18 | 23.81629 | -109.16797 | 18542 ft | 462 kts | 6° |
| 2026-04-30 01:19 | 23.84821 | -109.16306 | 18804 ft | 464 kts | 6° |
| 2026-04-30 01:19 | 23.88024 | -109.15814 | 19048 ft | 466 kts | 6° |
| 2026-04-30 01:19 | 23.91239 | -109.15319 | 19284 ft | 468 kts | 6° |
| 2026-04-30 01:19 | 23.94482 | -109.14846 | 19526 ft | 469 kts | 2° |
| 2026-04-30 01:20 | 23.97720 | -109.14949 | 19767 ft | 465 kts | 347° |
| 2026-04-30 01:20 | 24.00792 | -109.15991 | 20005 ft | 460 kts | 332° |
| 2026-04-30 01:20 | 24.03645 | -109.17581 | 20234 ft | 462 kts | 330° |
| 2026-04-30 01:20 | 24.06551 | -109.19104 | 20451 ft | 464 kts | 331° |
| 2026-04-30 01:21 | 24.09482 | -109.20605 | 20709 ft | 465 kts | 332° |
| 2026-04-30 01:21 | 24.12424 | -109.22092 | 20950 ft | 467 kts | 332° |
| 2026-04-30 01:21 | 24.15376 | -109.23573 | 21178 ft | 468 kts | 332° |
| 2026-04-30 01:21 | 24.18344 | -109.25061 | 21410 ft | 470 kts | 332° |
| 2026-04-30 01:22 | 24.21320 | -109.26553 | 21642 ft | 471 kts | 332° |
| 2026-04-30 01:22 | 24.24304 | -109.28048 | 21871 ft | 473 kts | 332° |
| 2026-04-30 01:22 | 24.27301 | -109.29552 | 22089 ft | 474 kts | 332° |
| 2026-04-30 01:22 | 24.30314 | -109.31064 | 22329 ft | 476 kts | 331° |
| 2026-04-30 01:23 | 24.33321 | -109.32575 | 22543 ft | 477 kts | 331° |
| 2026-04-30 01:23 | 24.36349 | -109.34096 | 22759 ft | 479 kts | 331° |
| 2026-04-30 01:23 | 24.39374 | -109.35617 | 22978 ft | 480 kts | 331° |
| 2026-04-30 01:23 | 24.42420 | -109.37149 | 23203 ft | 482 kts | 331° |
| 2026-04-30 01:24 | 24.45471 | -109.38684 | 23416 ft | 483 kts | 331° |
| 2026-04-30 01:24 | 24.48535 | -109.40227 | 23600 ft | 485 kts | 331° |
| 2026-04-30 01:24 | 24.51561 | -109.41752 | 23802 ft | 486 kts | 331° |
| 2026-04-30 01:24 | 24.54641 | -109.43305 | 23982 ft | 487 kts | 331° |
| 2026-04-30 01:25 | 24.57726 | -109.44861 | 24180 ft | 488 kts | 331° |
| 2026-04-30 01:25 | 24.60820 | -109.46422 | 24365 ft | 490 kts | 331° |
| 2026-04-30 01:25 | 24.63916 | -109.47986 | 24546 ft | 491 kts | 331° |
| 2026-04-30 01:25 | 24.67030 | -109.49559 | 24745 ft | 492 kts | 331° |
| 2026-04-30 01:26 | 24.70143 | -109.51133 | 24929 ft | 493 kts | 331° |
| 2026-04-30 01:26 | 24.73264 | -109.52712 | 25103 ft | 494 kts | 331° |
| 2026-04-30 01:26 | 24.76401 | -109.54300 | 25282 ft | 496 kts | 331° |
| 2026-04-30 01:26 | 24.79538 | -109.55888 | 25463 ft | 496 kts | 331° |
| 2026-04-30 01:27 | 24.82677 | -109.57479 | 25688 ft | 496 kts | 331° |
| 2026-04-30 01:27 | 24.85809 | -109.59067 | 25941 ft | 495 kts | 331° |
| 2026-04-30 01:27 | 24.88930 | -109.60650 | 26202 ft | 494 kts | 331° |
| 2026-04-30 01:27 | 24.92016 | -109.62217 | 26474 ft | 494 kts | 331° |
| 2026-04-30 01:28 | 24.95133 | -109.63807 | 26764 ft | 492 kts | 329° |
| 2026-04-30 01:28 | 24.97994 | -109.65865 | 27054 ft | 481 kts | 314° |
| 2026-04-30 01:28 | 25.00412 | -109.68385 | 27397 ft | 478 kts | 312° |
| 2026-04-30 01:28 | 25.02782 | -109.70884 | 27694 ft | 477 kts | 311° |
| 2026-04-30 01:29 | 25.05166 | -109.73431 | 28034 ft | 476 kts | 311° |
| 2026-04-30 01:29 | 25.07528 | -109.75978 | 28391 ft | 474 kts | 311° |
| 2026-04-30 01:29 | 25.09880 | -109.78524 | 28760 ft | 473 kts | 311° |
| 2026-04-30 01:29 | 25.12228 | -109.81069 | 29129 ft | 472 kts | 311° |
| 2026-04-30 01:30 | 25.14567 | -109.83605 | 29518 ft | 471 kts | 311° |
| 2026-04-30 01:30 | 25.16896 | -109.86132 | 29911 ft | 469 kts | 311° |
| 2026-04-30 01:30 | 25.19219 | -109.88655 | 30255 ft | 468 kts | 311° |
| 2026-04-30 01:30 | 25.21539 | -109.91176 | 30587 ft | 467 kts | 311° |
| 2026-04-30 01:31 | 25.23858 | -109.93697 | 30898 ft | 467 kts | 310° |
| 2026-04-30 01:31 | 25.26169 | -109.96209 | 31235 ft | 466 kts | 310° |
| 2026-04-30 01:31 | 25.28472 | -109.98716 | 31582 ft | 465 kts | 310° |
| 2026-04-30 01:31 | 25.30774 | -110.01222 | 31941 ft | 463 kts | 310° |
| 2026-04-30 01:32 | 25.33063 | -110.03717 | 32302 ft | 462 kts | 310° |
| 2026-04-30 01:32 | 25.35353 | -110.06212 | 32668 ft | 461 kts | 310° |
| 2026-04-30 01:32 | 25.37627 | -110.08693 | 33048 ft | 459 kts | 309° |
| 2026-04-30 01:32 | 25.39898 | -110.11170 | 33429 ft | 458 kts | 309° |
| 2026-04-30 01:33 | 25.42136 | -110.13614 | 33814 ft | 456 kts | 309° |
| 2026-04-30 01:33 | 25.44418 | -110.16107 | 34163 ft | 454 kts | 309° |
| 2026-04-30 01:33 | 25.46633 | -110.18528 | 34461 ft | 453 kts | 309° |
| 2026-04-30 01:33 | 25.48876 | -110.20980 | 34760 ft | 453 kts | 309° |
| 2026-04-30 01:34 | 25.51117 | -110.23432 | 35069 ft | 452 kts | 308° |
| 2026-04-30 01:34 | 25.53346 | -110.25874 | 35369 ft | 451 kts | 308° |
| 2026-04-30 01:34 | 25.55588 | -110.28330 | 35656 ft | 451 kts | 308° |
| 2026-04-30 01:34 | 25.57820 | -110.30775 | 35941 ft | 451 kts | 308° |
| 2026-04-30 01:35 | 25.60055 | -110.33227 | 36214 ft | 450 kts | 308° |
| 2026-04-30 01:35 | 25.62278 | -110.35666 | 36488 ft | 450 kts | 308° |
| 2026-04-30 01:35 | 25.64505 | -110.38112 | 36758 ft | 450 kts | 308° |
| 2026-04-30 01:35 | 25.66727 | -110.40552 | 37023 ft | 449 kts | 308° |
| 2026-04-30 01:36 | 25.68949 | -110.42995 | 37280 ft | 449 kts | 308° |
| 2026-04-30 01:36 | 25.71164 | -110.45431 | 37538 ft | 448 kts | 308° |
| 2026-04-30 01:36 | 25.73348 | -110.47833 | 37798 ft | 448 kts | 307° |
| 2026-04-30 01:36 | 25.75559 | -110.50268 | 37902 ft | 447 kts | 307° |
| 2026-04-30 01:37 | 25.79957 | -110.55114 | 37900 ft | 445 kts | 307° |
| 2026-04-30 01:37 | 25.84344 | -110.59953 | 37899 ft | 444 kts | 307° |
| 2026-04-30 01:38 | 25.88722 | -110.64789 | 37898 ft | 444 kts | 307° |
| 2026-04-30 01:38 | 25.92367 | -110.68818 | 37899 ft | 444 kts | 307° |
| 2026-04-30 01:39 | 25.96733 | -110.73649 | 37905 ft | 443 kts | 307° |
| 2026-04-30 01:39 | 26.01091 | -110.78476 | 37905 ft | 441 kts | 307° |
| 2026-04-30 01:40 | 26.05438 | -110.83297 | 37902 ft | 440 kts | 307° |
| 2026-04-30 01:40 | 26.09777 | -110.88114 | 37901 ft | 440 kts | 307° |
| 2026-04-30 01:41 | 26.14099 | -110.92919 | 37908 ft | 439 kts | 307° |
| 2026-04-30 01:41 | 26.18414 | -110.97719 | 37906 ft | 438 kts | 307° |
| 2026-04-30 01:42 | 26.22704 | -111.02496 | 37908 ft | 439 kts | 307° |
| 2026-04-30 01:42 | 26.27017 | -111.07308 | 37911 ft | 439 kts | 307° |
| 2026-04-30 01:43 | 26.31333 | -111.12126 | 37914 ft | 439 kts | 307° |
| 2026-04-30 01:43 | 26.35646 | -111.16946 | 37918 ft | 439 kts | 307° |
| 2026-04-30 01:44 | 26.39953 | -111.21765 | 37919 ft | 439 kts | 307° |
| 2026-04-30 01:44 | 26.44264 | -111.26594 | 37921 ft | 439 kts | 307° |
| 2026-04-30 01:45 | 26.48573 | -111.31425 | 37921 ft | 439 kts | 307° |
| 2026-04-30 01:45 | 26.52881 | -111.36262 | 37925 ft | 439 kts | 307° |
| 2026-04-30 01:46 | 26.57166 | -111.41076 | 37928 ft | 439 kts | 307° |
| 2026-04-30 01:46 | 26.61467 | -111.45916 | 37924 ft | 439 kts | 307° |
| 2026-04-30 01:47 | 26.65776 | -111.50770 | 37930 ft | 440 kts | 307° |
| 2026-04-30 01:47 | 26.70077 | -111.55620 | 37927 ft | 440 kts | 307° |
| 2026-04-30 01:48 | 26.74683 | -111.60106 | 37917 ft | 455 kts | 324° |
| 2026-04-30 01:48 | 26.80337 | -111.63424 | 37940 ft | 458 kts | 324° |
| 2026-04-30 01:49 | 26.85968 | -111.66822 | 37939 ft | 459 kts | 324° |
| 2026-04-30 01:49 | 26.91599 | -111.70219 | 37923 ft | 460 kts | 324° |
| 2026-04-30 01:50 | 26.97239 | -111.73626 | 37925 ft | 461 kts | 324° |
| 2026-04-30 01:50 | 27.02862 | -111.77027 | 37935 ft | 462 kts | 324° |
| 2026-04-30 01:51 | 27.08532 | -111.80460 | 37934 ft | 464 kts | 323° |
| 2026-04-30 01:51 | 27.14220 | -111.83908 | 37931 ft | 465 kts | 323° |
| 2026-04-30 01:52 | 27.19919 | -111.87367 | 37932 ft | 466 kts | 323° |
| 2026-04-30 01:52 | 27.25634 | -111.90839 | 37933 ft | 467 kts | 323° |
| 2026-04-30 01:53 | 27.31366 | -111.94326 | 37935 ft | 467 kts | 323° |
| 2026-04-30 01:53 | 27.37043 | -111.97783 | 37932 ft | 467 kts | 323° |
| 2026-04-30 01:54 | 27.42744 | -112.01260 | 37932 ft | 466 kts | 322° |
| 2026-04-30 01:54 | 27.48444 | -112.04739 | 37933 ft | 465 kts | 322° |
| 2026-04-30 01:55 | 27.54127 | -112.08212 | 37934 ft | 465 kts | 322° |
| 2026-04-30 01:55 | 27.59800 | -112.11683 | 37934 ft | 464 kts | 322° |
| 2026-04-30 01:56 | 27.65491 | -112.15169 | 37934 ft | 465 kts | 322° |
| 2026-04-30 01:56 | 27.71179 | -112.18658 | 37936 ft | 465 kts | 322° |
| 2026-04-30 01:57 | 27.76869 | -112.22153 | 37939 ft | 466 kts | 322° |
| 2026-04-30 01:57 | 27.82533 | -112.25635 | 37938 ft | 466 kts | 322° |
| 2026-04-30 01:58 | 27.88231 | -112.29143 | 37939 ft | 466 kts | 322° |
| 2026-04-30 01:58 | 27.93921 | -112.32650 | 37935 ft | 466 kts | 322° |
| 2026-04-30 01:59 | 28.02457 | -112.37918 | 37940 ft | 466 kts | 322° |
| 2026-04-30 02:00 | 28.08147 | -112.41436 | 37940 ft | 466 kts | 322° |
| 2026-04-30 02:00 | 28.13850 | -112.44966 | 37940 ft | 466 kts | 322° |
| 2026-04-30 02:01 | 28.19496 | -112.48465 | 37935 ft | 466 kts | 322° |
| 2026-04-30 02:01 | 28.25188 | -112.51997 | 37937 ft | 467 kts | 322° |
| 2026-04-30 02:02 | 28.30880 | -112.55532 | 37938 ft | 467 kts | 322° |
| 2026-04-30 02:02 | 28.36585 | -112.59081 | 37937 ft | 467 kts | 321° |
| 2026-04-30 02:03 | 28.42275 | -112.62624 | 37942 ft | 466 kts | 322° |
| 2026-04-30 02:03 | 28.47963 | -112.66170 | 37945 ft | 466 kts | 322° |
| 2026-04-30 02:04 | 28.53634 | -112.69711 | 37946 ft | 465 kts | 322° |
| 2026-04-30 02:04 | 28.59312 | -112.73260 | 37950 ft | 465 kts | 322° |
| 2026-04-30 02:05 | 28.64982 | -112.76809 | 37951 ft | 464 kts | 322° |
| 2026-04-30 02:05 | 28.70600 | -112.80329 | 37953 ft | 464 kts | 321° |
| 2026-04-30 02:06 | 28.76283 | -112.83895 | 37953 ft | 463 kts | 321° |
| 2026-04-30 02:06 | 28.81888 | -112.87416 | 37941 ft | 462 kts | 321° |
| 2026-04-30 02:07 | 28.87522 | -112.90959 | 37963 ft | 462 kts | 321° |
| 2026-04-30 02:07 | 28.93144 | -112.94500 | 37947 ft | 461 kts | 321° |
| 2026-04-30 02:08 | 28.98759 | -112.98040 | 37951 ft | 461 kts | 321° |
| 2026-04-30 02:08 | 29.04371 | -113.01583 | 37948 ft | 460 kts | 321° |
| 2026-04-30 02:09 | 29.09967 | -113.05120 | 37958 ft | 459 kts | 321° |
| 2026-04-30 02:09 | 29.15560 | -113.08660 | 37957 ft | 459 kts | 321° |
| 2026-04-30 02:10 | 29.21182 | -113.12223 | 37956 ft | 458 kts | 321° |
| 2026-04-30 02:10 | 29.26751 | -113.15757 | 37953 ft | 458 kts | 321° |
| 2026-04-30 02:11 | 29.32331 | -113.19301 | 37951 ft | 457 kts | 321° |
| 2026-04-30 02:11 | 29.37885 | -113.22834 | 37950 ft | 457 kts | 321° |
| 2026-04-30 02:12 | 29.43445 | -113.26376 | 37947 ft | 456 kts | 320° |
| 2026-04-30 02:12 | 29.48992 | -113.29913 | 37945 ft | 456 kts | 320° |
| 2026-04-30 02:13 | 29.54544 | -113.33458 | 37942 ft | 457 kts | 320° |
| 2026-04-30 02:13 | 29.60102 | -113.37012 | 37944 ft | 457 kts | 320° |
| 2026-04-30 02:14 | 29.65663 | -113.40572 | 37936 ft | 457 kts | 320° |
| 2026-04-30 02:14 | 29.71218 | -113.44132 | 37936 ft | 457 kts | 320° |
| 2026-04-30 02:15 | 29.76775 | -113.47699 | 37941 ft | 457 kts | 320° |
| 2026-04-30 02:15 | 29.82292 | -113.51244 | 37929 ft | 457 kts | 320° |
| 2026-04-30 02:16 | 29.87841 | -113.54814 | 37935 ft | 456 kts | 320° |
| 2026-04-30 02:16 | 29.93370 | -113.58376 | 37932 ft | 455 kts | 320° |
| 2026-04-30 02:17 | 29.98895 | -113.61939 | 37928 ft | 454 kts | 320° |
| 2026-04-30 02:17 | 30.04410 | -113.65502 | 37931 ft | 454 kts | 320° |
| 2026-04-30 02:18 | 30.09917 | -113.69064 | 37930 ft | 454 kts | 320° |
| 2026-04-30 02:18 | 30.15439 | -113.72639 | 37933 ft | 455 kts | 320° |
| 2026-04-30 02:19 | 30.20962 | -113.76221 | 37932 ft | 455 kts | 320° |
| 2026-04-30 02:19 | 30.26484 | -113.79806 | 37931 ft | 456 kts | 320° |
| 2026-04-30 02:20 | 30.32005 | -113.83396 | 37928 ft | 456 kts | 319° |
| 2026-04-30 02:20 | 30.37554 | -113.87007 | 37924 ft | 457 kts | 319° |
| 2026-04-30 02:21 | 30.43018 | -113.90569 | 37923 ft | 457 kts | 319° |
| 2026-04-30 02:21 | 30.48578 | -113.94198 | 37928 ft | 458 kts | 319° |
| 2026-04-30 02:22 | 30.54144 | -113.97835 | 37929 ft | 459 kts | 319° |
| 2026-04-30 02:22 | 30.58761 | -114.00856 | 37924 ft | 459 kts | 319° |
| 2026-04-30 02:23 | 30.64322 | -114.04499 | 37924 ft | 459 kts | 319° |
| 2026-04-30 02:23 | 30.69889 | -114.08151 | 37924 ft | 460 kts | 319° |
| 2026-04-30 02:24 | 30.75460 | -114.11810 | 37924 ft | 460 kts | 319° |
| 2026-04-30 02:24 | 30.81023 | -114.15469 | 37924 ft | 460 kts | 319° |
| 2026-04-30 02:25 | 30.86588 | -114.19135 | 37921 ft | 460 kts | 319° |
| 2026-04-30 02:25 | 30.92162 | -114.22811 | 37922 ft | 460 kts | 319° |
| 2026-04-30 02:26 | 30.97726 | -114.26486 | 37925 ft | 459 kts | 319° |
| 2026-04-30 02:26 | 31.03279 | -114.30157 | 37926 ft | 459 kts | 319° |
| 2026-04-30 02:27 | 31.08963 | -114.33667 | 37932 ft | 465 kts | 323° |
| 2026-04-30 02:27 | 31.14755 | -114.36955 | 37928 ft | 464 kts | 322° |
| 2026-04-30 02:28 | 31.20546 | -114.40287 | 37929 ft | 464 kts | 322° |
| 2026-04-30 02:28 | 31.26328 | -114.43623 | 37921 ft | 464 kts | 322° |
| 2026-04-30 02:29 | 31.32115 | -114.46966 | 37931 ft | 463 kts | 322° |
| 2026-04-30 02:29 | 31.37892 | -114.50308 | 37929 ft | 463 kts | 322° |
| 2026-04-30 02:30 | 31.43669 | -114.53655 | 37917 ft | 462 kts | 322° |
| 2026-04-30 02:30 | 31.49429 | -114.56996 | 37922 ft | 462 kts | 322° |
| 2026-04-30 02:31 | 31.55190 | -114.60343 | 37927 ft | 461 kts | 322° |
| 2026-04-30 02:31 | 31.60931 | -114.63683 | 37924 ft | 461 kts | 322° |
| 2026-04-30 02:32 | 31.66684 | -114.67034 | 37921 ft | 460 kts | 322° |
| 2026-04-30 02:32 | 31.72412 | -114.70376 | 37923 ft | 460 kts | 322° |
| 2026-04-30 02:33 | 31.78127 | -114.73714 | 37923 ft | 459 kts | 322° |
| 2026-04-30 02:33 | 31.83605 | -114.77385 | 37904 ft | 435 kts | 307° |
| 2026-04-30 02:33 | 31.85597 | -114.79936 | 37916 ft | 414 kts | 292° |
| 2026-04-30 02:34 | 31.86965 | -114.82844 | 37928 ft | 405 kts | 286° |
| 2026-04-30 02:34 | 31.89258 | -114.88853 | 37903 ft | 398 kts | 283° |
| 2026-04-30 02:35 | 31.91281 | -114.94817 | 37915 ft | 387 kts | 282° |
| 2026-04-30 02:35 | 31.93198 | -115.00687 | 37372 ft | 387 kts | 281° |
| 2026-04-30 02:35 | 31.94160 | -115.03665 | 36513 ft | 392 kts | 281° |
| 2026-04-30 02:36 | 31.95140 | -115.06707 | 35715 ft | 399 kts | 281° |
| 2026-04-30 02:36 | 31.96128 | -115.09773 | 34955 ft | 400 kts | 281° |
| 2026-04-30 02:36 | 31.97112 | -115.12832 | 34494 ft | 403 kts | 281° |
| 2026-04-30 02:36 | 31.98118 | -115.15962 | 33842 ft | 411 kts | 281° |
| 2026-04-30 02:37 | 31.99137 | -115.19135 | 33027 ft | 414 kts | 281° |
| 2026-04-30 02:37 | 32.00158 | -115.22316 | 32249 ft | 416 kts | 281° |
| 2026-04-30 02:37 | 32.01190 | -115.25538 | 31478 ft | 416 kts | 281° |
| 2026-04-30 02:37 | 32.02200 | -115.28695 | 30651 ft | 417 kts | 281° |
| 2026-04-30 02:38 | 32.03212 | -115.31860 | 29864 ft | 417 kts | 282° |
| 2026-04-30 02:38 | 32.04223 | -115.35022 | 28919 ft | 419 kts | 282° |
| 2026-04-30 02:38 | 32.05251 | -115.38246 | 27967 ft | 422 kts | 283° |
| 2026-04-30 02:38 | 32.06303 | -115.41546 | 27199 ft | 427 kts | 283° |
| 2026-04-30 02:39 | 32.07340 | -115.44800 | 26496 ft | 431 kts | 283° |
| 2026-04-30 02:39 | 32.08399 | -115.48132 | 25751 ft | 434 kts | 284° |
| 2026-04-30 02:39 | 32.09473 | -115.51510 | 25023 ft | 435 kts | 284° |
| 2026-04-30 02:39 | 32.10531 | -115.54841 | 24296 ft | 434 kts | 285° |
| 2026-04-30 02:40 | 32.11587 | -115.58170 | 23596 ft | 432 kts | 285° |
| 2026-04-30 02:40 | 32.12635 | -115.61481 | 22767 ft | 428 kts | 285° |
| 2026-04-30 02:40 | 32.13667 | -115.64741 | 22036 ft | 424 kts | 285° |
| 2026-04-30 02:40 | 32.14697 | -115.68009 | 21171 ft | 422 kts | 286° |
| 2026-04-30 02:41 | 32.15712 | -115.71230 | 20521 ft | 417 kts | 286° |
| 2026-04-30 02:41 | 32.16716 | -115.74419 | 19875 ft | 411 kts | 286° |
| 2026-04-30 02:41 | 32.17705 | -115.77565 | 19214 ft | 407 kts | 286° |
| 2026-04-30 02:41 | 32.18681 | -115.80673 | 18545 ft | 403 kts | 287° |
| 2026-04-30 02:42 | 32.19649 | -115.83760 | 17804 ft | 399 kts | 287° |
| 2026-04-30 02:42 | 32.20611 | -115.86805 | 17193 ft | 391 kts | 287° |
| 2026-04-30 02:42 | 32.21564 | -115.89861 | 16447 ft | 392 kts | 287° |
| 2026-04-30 02:42 | 32.22510 | -115.92884 | 15785 ft | 394 kts | 288° |
| 2026-04-30 02:43 | 32.23460 | -115.95924 | 15146 ft | 393 kts | 288° |
| 2026-04-30 02:43 | 32.24405 | -115.98947 | 14492 ft | 391 kts | 288° |
| 2026-04-30 02:43 | 32.25339 | -116.01941 | 13848 ft | 388 kts | 289° |
| 2026-04-30 02:43 | 32.26273 | -116.04940 | 13128 ft | 386 kts | 289° |
| 2026-04-30 02:44 | 32.27199 | -116.07910 | 12394 ft | 386 kts | 289° |
| 2026-04-30 02:44 | 32.28116 | -116.10861 | 11993 ft | 375 kts | 289° |
| 2026-04-30 02:44 | 32.28996 | -116.13692 | 11764 ft | 361 kts | 289° |
| 2026-04-30 02:44 | 32.29847 | -116.16429 | 11540 ft | 348 kts | 289° |
| 2026-04-30 02:45 | 32.30671 | -116.19084 | 11323 ft | 335 kts | 289° |
| 2026-04-30 02:45 | 32.31448 | -116.21589 | 11124 ft | 323 kts | 289° |
| 2026-04-30 02:45 | 32.32217 | -116.24071 | 10926 ft | 312 kts | 289° |
| 2026-04-30 02:45 | 32.32457 | -116.24847 | 10853 ft | 309 kts | 288° |
| 2026-04-30 02:46 | 32.33124 | -116.27002 | 10700 ft | 299 kts | 289° |
| 2026-04-30 02:46 | 32.33827 | -116.29275 | 10528 ft | 289 kts | 288° |
| 2026-04-30 02:46 | 32.34506 | -116.31472 | 10357 ft | 280 kts | 289° |
| 2026-04-30 02:47 | 32.35161 | -116.33594 | 10198 ft | 270 kts | 288° |
| 2026-04-30 02:47 | 32.35800 | -116.35662 | 9941 ft | 267 kts | 288° |
| 2026-04-30 02:47 | 32.36440 | -116.37739 | 9549 ft | 270 kts | 288° |
| 2026-04-30 02:47 | 32.37087 | -116.39838 | 9197 ft | 271 kts | 288° |
| 2026-04-30 02:48 | 32.37734 | -116.41938 | 8800 ft | 271 kts | 288° |
| 2026-04-30 02:48 | 32.38376 | -116.44026 | 8468 ft | 269 kts | 288° |
| 2026-04-30 02:48 | 32.39012 | -116.46087 | 8153 ft | 266 kts | 289° |
| 2026-04-30 02:48 | 32.39605 | -116.48147 | 7796 ft | 264 kts | 284° |
| 2026-04-30 02:49 | 32.40012 | -116.50263 | 7463 ft | 262 kts | 278° |
| 2026-04-30 02:49 | 32.40278 | -116.52392 | 7112 ft | 261 kts | 277° |
| 2026-04-30 02:49 | 32.40548 | -116.54513 | 6785 ft | 260 kts | 277° |
| 2026-04-30 02:49 | 32.40821 | -116.56615 | 6481 ft | 258 kts | 277° |
| 2026-04-30 02:50 | 32.41096 | -116.58703 | 6133 ft | 256 kts | 277° |
| 2026-04-30 02:50 | 32.41372 | -116.60776 | 5912 ft | 250 kts | 277° |
| 2026-04-30 02:50 | 32.41638 | -116.62769 | 5770 ft | 241 kts | 277° |
| 2026-04-30 02:50 | 32.41948 | -116.64663 | 5690 ft | 228 kts | 281° |
| 2026-04-30 02:51 | 32.42350 | -116.66449 | 5528 ft | 220 kts | 284° |
| 2026-04-30 02:51 | 32.42777 | -116.68136 | 5320 ft | 213 kts | 284° |
| 2026-04-30 02:51 | 32.43199 | -116.69788 | 5135 ft | 200 kts | 285° |
| 2026-04-30 02:51 | 32.43589 | -116.71309 | 5018 ft | 182 kts | 285° |
| 2026-04-30 02:52 | 32.43866 | -116.72380 | 5028 ft | 171 kts | 285° |
| 2026-04-30 02:52 | 32.44214 | -116.73723 | 4935 ft | 170 kts | 285° |
| 2026-04-30 02:52 | 32.44268 | -116.73932 | 4902 ft | 169 kts | 285° |
| 2026-04-30 02:52 | 32.44360 | -116.74288 | 4834 ft | 168 kts | 284° |
| 2026-04-30 02:53 | 32.44402 | -116.74451 | 4796 ft | 167 kts | 284° |
| 2026-04-30 02:53 | 32.44873 | -116.76267 | 4438 ft | 167 kts | 285° |
| 2026-04-30 02:53 | 32.45096 | -116.77136 | 4274 ft | 167 kts | 286° |
| 2026-04-30 02:53 | 32.45437 | -116.78451 | 4077 ft | 167 kts | 285° |
| 2026-04-30 02:54 | 32.45777 | -116.79765 | 4003 ft | 167 kts | 285° |
| 2026-04-30 02:54 | 32.46117 | -116.81078 | 3991 ft | 167 kts | 286° |
| 2026-04-30 02:54 | 32.46452 | -116.82171 | 3997 ft | 168 kts | 292° |
| 2026-04-30 02:54 | 32.47036 | -116.83363 | 3992 ft | 165 kts | 304° |
| 2026-04-30 02:55 | 32.47781 | -116.84299 | 4034 ft | 153 kts | 318° |
| 2026-04-30 02:55 | 32.48667 | -116.84986 | 4000 ft | 151 kts | 330° |
| 2026-04-30 02:55 | 32.49623 | -116.85485 | 3711 ft | 150 kts | 336° |
| 2026-04-30 02:55 | 32.50590 | -116.85991 | 3312 ft | 151 kts | 331° |
| 2026-04-30 02:56 | 32.51488 | -116.86596 | 2969 ft | 151 kts | 327° |
| 2026-04-30 02:56 | 32.52345 | -116.87302 | 2625 ft | 150 kts | 318° |
| 2026-04-30 02:56 | 32.52981 | -116.88284 | 2200 ft | 152 kts | 294° |
| 2026-04-30 02:56 | 32.53187 | -116.89488 | 1778 ft | 150 kts | 274° |
| 2026-04-30 02:57 | 32.53307 | -116.90685 | 1447 ft | 143 kts | 276° |
| 2026-04-30 02:57 | 32.53368 | -116.91187 | 1254 ft | 144 kts | 277° |
| 2026-04-30 02:57 | 32.53516 | -116.92333 | 899 ft | 140 kts | 277° |
| 2026-04-30 02:57 | 32.53663 | -116.93454 | 790 ft | 138 kts | 277° |
| 2026-04-30 02:58 | 32.53800 | -116.94582 | 679 ft | 136 kts | 277° |
| 2026-04-30 02:58 | 32.53939 | -116.95681 | 526 ft | 138 kts | 276° |
| 2026-04-30 02:58 | 32.54064 | -116.96692 | 480 ft | 114 kts | 278° |
| 2026-04-30 02:58 | 32.54153 | -116.97341 | 481 ft | 63 kts | 278° |
| 2026-04-30 02:59 | 32.54186 | -116.97596 | 477 ft | 10 kts | 287° |
| 2026-04-30 02:59 | 32.54243 | -116.97670 | 482 ft | 12 kts | 310° |
| 2026-04-30 02:59 | 32.54298 | -116.97748 | 478 ft | 8 kts | 314° |
| 2026-04-30 02:59 | 32.54318 | -116.97769 | 477 ft | 2 kts | 322° |
| 2026-04-30 03:00 | 32.54349 | -116.97789 | 474 ft | 6 kts | 340° |
| 2026-04-30 03:00 | 32.54383 | -116.97793 | 471 ft | 5 kts | 2° |
| 2026-04-30 03:00 | 32.54401 | -116.97791 | 474 ft | 2 kts | 10° |
| 2026-04-30 03:00 | 32.54416 | -116.97767 | 469 ft | 5 kts | 76° |
| 2026-04-30 03:01 | 32.54416 | -116.97722 | 473 ft | 4 kts | 101° |
| 2026-04-30 03:01 | 32.54408 | -116.97670 | 474 ft | 8 kts | 99° |
| 2026-04-30 03:01 | 32.54426 | -116.97600 | 473 ft | 11 kts | 30° |
| 2026-04-30 03:01 | 32.54450 | -116.97591 | 471 ft | 0 kts | 8° |
| 2026-04-30 03:02 | 32.54453 | -116.97591 | 471 ft | 0 kts | 8° |
| 2026-04-30 03:02 | 32.54471 | -116.97586 | 468 ft | 5 kts | 11° |
| 2026-04-30 03:03 | 32.54485 | -116.97586 | 469 ft | 2 kts | 351° |
| 2026-04-30 03:03 | 32.54507 | -116.97628 | 473 ft | 2 kts | 282° |
| 2026-04-30 03:03 | 32.54510 | -116.97646 | 470 ft | 1 kts | 280° |
| 2026-04-30 03:04 | 32.54509 | -116.97642 | 470 ft | 0 kts | 280° |
| 2026-04-30 03:04 | 32.54509 | -116.97644 | 470 ft | 0 kts | 280° |